sensor_id;sensor_type;location;lat;lon;timestamp;pressure;altitude;pressure_sealevel;temperature;humidity
19761;BME280;10039;42.632;23.408;2023-05-23T00:00:58;94870.22;;;14.53;75.80
19761;BME280;10039;42.632;23.408;2023-05-23T00:03:24;94865.09;;;14.46;75.83
19761;BME280;10039;42.632;23.408;2023-05-23T00:05:50;94835.09;;;14.04;76.15
19761;BME280;10039;42.632;23.408;2023-05-23T00:08:15;94839.84;;;13.54;77.85
19761;BME280;10039;42.632;23.408;2023-05-23T00:10:41;94863.84;;;13.57;78.85
19761;BME280;10039;42.632;23.408;2023-05-23T00:13:06;94839.22;;;13.50;78.97
19761;BME280;10039;42.632;23.408;2023-05-23T00:15:39;94863.34;;;13.50;79.31
19761;BME280;10039;42.632;23.408;2023-05-23T00:18:09;94864.13;;;13.38;79.96
19761;BME280;10039;42.632;23.408;2023-05-23T00:20:39;94839.47;;;13.18;80.29
19761;BME280;10039;42.632;23.408;2023-05-23T00:23:08;94866.25;;;13.18;80.54
19761;BME280;10039;42.632;23.408;2023-05-23T00:25:35;94870.44;;;13.32;80.48
19761;BME280;10039;42.632;23.408;2023-05-23T00:28:02;94855.88;;;13.20;80.50
19761;BME280;10039;42.632;23.408;2023-05-23T00:30:29;94840.66;;;12.92;81.33
19761;BME280;10039;42.632;23.408;2023-05-23T00:32:55;94858.88;;;13.10;81.35
19761;BME280;10039;42.632;23.408;2023-05-23T00:35:21;94862.06;;;13.30;80.72
19761;BME280;10039;42.632;23.408;2023-05-23T00:37:48;94856.19;;;13.22;80.21
19761;BME280;10039;42.632;23.408;2023-05-23T00:40:19;94848.59;;;13.21;80.50
19761;BME280;10039;42.632;23.408;2023-05-23T00:42:45;94837.00;;;12.99;81.24
19761;BME280;10039;42.632;23.408;2023-05-23T00:45:11;94845.03;;;13.11;80.93
19761;BME280;10039;42.632;23.408;2023-05-23T00:47:38;94844.72;;;13.22;80.83
19761;BME280;10039;42.632;23.408;2023-05-23T00:50:13;94849.31;;;13.21;80.31
19761;BME280;10039;42.632;23.408;2023-05-23T00:52:41;94844.41;;;13.20;80.74
19761;BME280;10039;42.632;23.408;2023-05-23T00:55:07;94843.44;;;13.26;80.40
19761;BME280;10039;42.632;23.408;2023-05-23T00:57:33;94840.31;;;13.28;79.49
19761;BME280;10039;42.632;23.408;2023-05-23T01:00:02;94834.53;;;13.29;80.06
19761;BME280;10039;42.632;23.408;2023-05-23T01:02:30;94853.06;;;13.24;79.81
19761;BME280;10039;42.632;23.408;2023-05-23T01:04:57;94852.00;;;13.34;79.60
19761;BME280;10039;42.632;23.408;2023-05-23T01:07:24;94860.56;;;13.29;79.69
19761;BME280;10039;42.632;23.408;2023-05-23T01:09:49;94859.63;;;13.35;79.67
19761;BME280;10039;42.632;23.408;2023-05-23T01:12:19;94853.59;;;13.43;79.36
19761;BME280;10039;42.632;23.408;2023-05-23T01:15:07;94835.72;;;13.28;78.48
19761;BME280;10039;42.632;23.408;2023-05-23T01:20:08;94846.84;;;13.51;78.07
19761;BME280;10039;42.632;23.408;2023-05-23T01:22:53;94840.09;;;13.35;77.77
19761;BME280;10039;42.632;23.408;2023-05-23T01:28:19;94855.66;;;13.02;79.18
19761;BME280;10039;42.632;23.408;2023-05-23T01:30:47;94865.63;;;13.02;80.28
19761;BME280;10039;42.632;23.408;2023-05-23T01:33:16;94821.09;;;12.67;80.03
19761;BME280;10039;42.632;23.408;2023-05-23T01:35:44;94863.06;;;12.98;80.20
19761;BME280;10039;42.632;23.408;2023-05-23T01:38:10;94848.34;;;13.15;79.46
19761;BME280;10039;42.632;23.408;2023-05-23T01:40:37;94851.81;;;13.16;79.28
19761;BME280;10039;42.632;23.408;2023-05-23T01:43:03;94856.31;;;13.19;78.89
19761;BME280;10039;42.632;23.408;2023-05-23T01:45:29;94849.44;;;12.93;79.57
19761;BME280;10039;42.632;23.408;2023-05-23T01:47:56;94838.06;;;12.89;78.91
19761;BME280;10039;42.632;23.408;2023-05-23T01:50:23;94818.56;;;12.88;79.34
19761;BME280;10039;42.632;23.408;2023-05-23T01:52:48;94844.72;;;12.97;79.16
19761;BME280;10039;42.632;23.408;2023-05-23T01:55:16;94853.94;;;12.96;80.03
19761;BME280;10039;42.632;23.408;2023-05-23T01:57:49;94842.66;;;12.76;79.42
19761;BME280;10039;42.632;23.408;2023-05-23T02:00:15;94842.56;;;12.92;79.42
19761;BME280;10039;42.632;23.408;2023-05-23T02:02:40;94849.00;;;13.07;79.19
19761;BME280;10039;42.632;23.408;2023-05-23T02:05:06;94852.88;;;13.06;78.58
19761;BME280;10039;42.632;23.408;2023-05-23T02:07:33;94855.22;;;13.04;78.48
19761;BME280;10039;42.632;23.408;2023-05-23T02:09:58;94856.00;;;13.04;78.66
19761;BME280;10039;42.632;23.408;2023-05-23T02:12:24;94843.78;;;13.03;78.43
19761;BME280;10039;42.632;23.408;2023-05-23T02:14:49;94865.41;;;13.09;78.31
19761;BME280;10039;42.632;23.408;2023-05-23T02:17:17;94854.16;;;13.14;77.81
19761;BME280;10039;42.632;23.408;2023-05-23T02:19:43;94852.53;;;13.29;77.60
19761;BME280;10039;42.632;23.408;2023-05-23T02:22:08;94845.66;;;13.28;77.56
19761;BME280;10039;42.632;23.408;2023-05-23T02:24:34;94846.22;;;13.35;76.83
19761;BME280;10039;42.632;23.408;2023-05-23T02:27:00;94848.59;;;13.33;76.71
19761;BME280;10039;42.632;23.408;2023-05-23T02:29:25;94843.31;;;13.17;76.94
19761;BME280;10039;42.632;23.408;2023-05-23T02:31:51;94846.44;;;13.28;76.69
19761;BME280;10039;42.632;23.408;2023-05-23T02:34:16;94852.09;;;13.43;76.40
19761;BME280;10039;42.632;23.408;2023-05-23T02:36:42;94854.13;;;13.39;75.81
19761;BME280;10039;42.632;23.408;2023-05-23T02:39:07;94837.84;;;13.33;76.21
19761;BME280;10039;42.632;23.408;2023-05-23T02:41:33;94840.63;;;13.42;76.13
19761;BME280;10039;42.632;23.408;2023-05-23T02:43:58;94835.19;;;13.33;75.63
19761;BME280;10039;42.632;23.408;2023-05-23T02:46:24;94834.53;;;13.29;75.62
19761;BME280;10039;42.632;23.408;2023-05-23T02:48:50;94853.41;;;13.38;75.36
19761;BME280;10039;42.632;23.408;2023-05-23T02:51:15;94817.94;;;13.22;75.25
19761;BME280;10039;42.632;23.408;2023-05-23T02:53:41;94845.25;;;13.42;75.24
19761;BME280;10039;42.632;23.408;2023-05-23T02:56:07;94827.47;;;13.35;75.15
19761;BME280;10039;42.632;23.408;2023-05-23T02:58:33;94836.44;;;13.41;75.15
19761;BME280;10039;42.632;23.408;2023-05-23T03:01:02;94838.41;;;13.28;76.23
19761;BME280;10039;42.632;23.408;2023-05-23T03:03:28;94841.59;;;13.36;76.37
19761;BME280;10039;42.632;23.408;2023-05-23T03:05:58;94835.69;;;13.41;76.65
19761;BME280;10039;42.632;23.408;2023-05-23T03:08:24;94827.97;;;13.43;76.25
19761;BME280;10039;42.632;23.408;2023-05-23T03:10:50;94797.00;;;13.29;77.14
19761;BME280;10039;42.632;23.408;2023-05-23T03:13:16;94826.03;;;13.43;76.67
19761;BME280;10039;42.632;23.408;2023-05-23T03:15:42;94841.25;;;13.46;76.91
19761;BME280;10039;42.632;23.408;2023-05-23T03:18:07;94827.34;;;13.39;77.32
19761;BME280;10039;42.632;23.408;2023-05-23T03:20:32;94821.00;;;13.33;77.66
19761;BME280;10039;42.632;23.408;2023-05-23T03:22:58;94838.47;;;13.49;77.59
19761;BME280;10039;42.632;23.408;2023-05-23T03:25:23;94828.16;;;13.48;76.72
19761;BME280;10039;42.632;23.408;2023-05-23T03:27:50;94818.00;;;13.31;77.01
19761;BME280;10039;42.632;23.408;2023-05-23T03:30:15;94840.84;;;13.47;76.76
19761;BME280;10039;42.632;23.408;2023-05-23T03:32:41;94839.66;;;13.24;77.19
19761;BME280;10039;42.632;23.408;2023-05-23T03:35:07;94837.44;;;13.10;78.31
19761;BME280;10039;42.632;23.408;2023-05-23T03:37:32;94842.13;;;12.81;79.51
19761;BME280;10039;42.632;23.408;2023-05-23T03:39:58;94865.41;;;12.55;80.89
19761;BME280;10039;42.632;23.408;2023-05-23T03:42:23;94853.44;;;12.60;80.77
19761;BME280;10039;42.632;23.408;2023-05-23T03:44:49;94867.41;;;12.80;81.07
19761;BME280;10039;42.632;23.408;2023-05-23T03:47:14;94867.28;;;12.83;80.34
19761;BME280;10039;42.632;23.408;2023-05-23T03:49:40;94870.84;;;12.93;80.54
19761;BME280;10039;42.632;23.408;2023-05-23T03:52:05;94863.59;;;13.06;80.08
19761;BME280;10039;42.632;23.408;2023-05-23T03:54:31;94859.72;;;13.19;79.38
19761;BME280;10039;42.632;23.408;2023-05-23T03:56:56;94871.09;;;13.23;78.72
19761;BME280;10039;42.632;23.408;2023-05-23T03:59:21;94858.22;;;13.18;78.74
19761;BME280;10039;42.632;23.408;2023-05-23T04:01:47;94863.38;;;13.25;79.37
19761;BME280;10039;42.632;23.408;2023-05-23T04:04:12;94832.38;;;12.74;80.10
19761;BME280;10039;42.632;23.408;2023-05-23T04:06:38;94868.94;;;13.06;80.32
19761;BME280;10039;42.632;23.408;2023-05-23T04:09:03;94868.22;;;13.05;79.79
19761;BME280;10039;42.632;23.408;2023-05-23T04:11:30;94874.31;;;13.18;79.77
19761;BME280;10039;42.632;23.408;2023-05-23T04:13:55;94881.16;;;13.32;78.75
19761;BME280;10039;42.632;23.408;2023-05-23T04:16:21;94885.00;;;13.43;78.45
19761;BME280;10039;42.632;23.408;2023-05-23T04:18:47;94870.09;;;13.42;77.71
19761;BME280;10039;42.632;23.408;2023-05-23T04:21:12;94865.81;;;13.44;78.37
19761;BME280;10039;42.632;23.408;2023-05-23T04:23:38;94875.78;;;13.32;78.62
19761;BME280;10039;42.632;23.408;2023-05-23T04:26:03;94861.88;;;13.12;79.76
19761;BME280;10039;42.632;23.408;2023-05-23T04:28:30;94881.28;;;13.03;80.23
19761;BME280;10039;42.632;23.408;2023-05-23T04:30:55;94842.13;;;12.81;80.50
19761;BME280;10039;42.632;23.408;2023-05-23T04:33:21;94874.94;;;13.10;79.65
19761;BME280;10039;42.632;23.408;2023-05-23T04:35:46;94876.22;;;12.93;81.12
19761;BME280;10039;42.632;23.408;2023-05-23T04:38:13;94889.84;;;12.98;80.88
19761;BME280;10039;42.632;23.408;2023-05-23T04:40:38;94868.28;;;13.02;81.03
19761;BME280;10039;42.632;23.408;2023-05-23T04:43:04;94859.28;;;13.08;80.97
19761;BME280;10039;42.632;23.408;2023-05-23T04:45:29;94874.41;;;13.15;80.90
19761;BME280;10039;42.632;23.408;2023-05-23T04:47:55;94878.69;;;13.00;81.45
19761;BME280;10039;42.632;23.408;2023-05-23T04:50:20;94881.81;;;13.11;81.40
19761;BME280;10039;42.632;23.408;2023-05-23T04:52:48;94868.28;;;13.02;81.53
19761;BME280;10039;42.632;23.408;2023-05-23T04:55:14;94877.31;;;13.08;82.35
19761;BME280;10039;42.632;23.408;2023-05-23T04:57:39;94882.78;;;13.04;81.96
19761;BME280;10039;42.632;23.408;2023-05-23T05:00:05;94896.38;;;13.10;82.17
19761;BME280;10039;42.632;23.408;2023-05-23T05:02:40;94892.31;;;13.18;81.60
19761;BME280;10039;42.632;23.408;2023-05-23T05:05:05;94883.09;;;13.19;81.30
19761;BME280;10039;42.632;23.408;2023-05-23T05:07:31;94894.88;;;13.34;80.83
19761;BME280;10039;42.632;23.408;2023-05-23T05:09:57;94899.06;;;13.47;80.13
19761;BME280;10039;42.632;23.408;2023-05-23T05:12:22;94902.03;;;13.61;79.96
19761;BME280;10039;42.632;23.408;2023-05-23T05:14:48;94902.16;;;13.70;79.34
19761;BME280;10039;42.632;23.408;2023-05-23T05:17:14;94909.47;;;13.70;79.46
19761;BME280;10039;42.632;23.408;2023-05-23T05:19:39;94912.56;;;13.68;78.90
19761;BME280;10039;42.632;23.408;2023-05-23T05:22:05;94904.81;;;13.70;78.92
19761;BME280;10039;42.632;23.408;2023-05-23T05:24:30;94888.75;;;13.58;78.38
19761;BME280;10039;42.632;23.408;2023-05-23T05:26:57;94894.31;;;13.63;79.64
19761;BME280;10039;42.632;23.408;2023-05-23T05:29:22;94906.13;;;13.41;79.84
19761;BME280;10039;42.632;23.408;2023-05-23T05:31:48;94909.47;;;13.33;81.05
19761;BME280;10039;42.632;23.408;2023-05-23T05:34:13;94904.63;;;13.40;81.44
19761;BME280;10039;42.632;23.408;2023-05-23T05:36:39;94903.75;;;13.55;81.64
19761;BME280;10039;42.632;23.408;2023-05-23T05:39:11;94894.75;;;13.62;81.05
19761;BME280;10039;42.632;23.408;2023-05-23T05:41:38;94900.97;;;13.59;81.00
19761;BME280;10039;42.632;23.408;2023-05-23T05:44:03;94908.56;;;13.73;81.60
19761;BME280;10039;42.632;23.408;2023-05-23T05:46:29;94906.19;;;13.87;80.54
19761;BME280;10039;42.632;23.408;2023-05-23T05:48:54;94909.59;;;14.00;80.60
19761;BME280;10039;42.632;23.408;2023-05-23T05:51:19;94886.34;;;13.85;80.92
19761;BME280;10039;42.632;23.408;2023-05-23T05:53:45;94903.03;;;14.14;80.31
19761;BME280;10039;42.632;23.408;2023-05-23T05:56:11;94893.56;;;14.22;80.47
19761;BME280;10039;42.632;23.408;2023-05-23T05:58:37;94902.06;;;14.42;79.54
19761;BME280;10039;42.632;23.408;2023-05-23T06:01:03;94901.94;;;14.11;80.29
19761;BME280;10039;42.632;23.408;2023-05-23T06:03:30;94894.63;;;14.24;81.36
19761;BME280;10039;42.632;23.408;2023-05-23T06:05:56;94862.63;;;14.30;80.31
19761;BME280;10039;42.632;23.408;2023-05-23T06:08:21;94899.88;;;14.92;79.55
19761;BME280;10039;42.632;23.408;2023-05-23T06:10:47;94890.41;;;15.09;78.42
19761;BME280;10039;42.632;23.408;2023-05-23T06:13:12;94896.31;;;14.95;77.78
19761;BME280;10039;42.632;23.408;2023-05-23T06:15:37;94898.41;;;15.00;78.39
19761;BME280;10039;42.632;23.408;2023-05-23T06:18:03;94903.00;;;15.21;78.09
19761;BME280;10039;42.632;23.408;2023-05-23T06:20:28;94905.41;;;15.49;77.72
19761;BME280;10039;42.632;23.408;2023-05-23T06:22:54;94902.25;;;15.42;76.87
19761;BME280;10039;42.632;23.408;2023-05-23T06:25:19;94907.78;;;15.47;76.84
19761;BME280;10039;42.632;23.408;2023-05-23T06:27:45;94890.03;;;15.59;76.20
19761;BME280;10039;42.632;23.408;2023-05-23T06:30:11;94899.19;;;15.70;76.57
19761;BME280;10039;42.632;23.408;2023-05-23T06:32:36;94903.59;;;16.03;76.04
19761;BME280;10039;42.632;23.408;2023-05-23T06:35:02;94884.91;;;16.18;75.13
19761;BME280;10039;42.632;23.408;2023-05-23T06:37:28;94882.53;;;16.47;74.18
19761;BME280;10039;42.632;23.408;2023-05-23T06:39:53;94885.69;;;16.54;73.69
19761;BME280;10039;42.632;23.408;2023-05-23T06:42:18;94895.22;;;16.73;73.50
19761;BME280;10039;42.632;23.408;2023-05-23T06:44:44;94900.25;;;17.16;72.49
19761;BME280;10039;42.632;23.408;2023-05-23T06:47:09;94906.19;;;17.38;71.76
19761;BME280;10039;42.632;23.408;2023-05-23T06:49:35;94896.53;;;17.55;69.86
19761;BME280;10039;42.632;23.408;2023-05-23T06:52:00;94874.72;;;17.67;69.58
19761;BME280;10039;42.632;23.408;2023-05-23T06:54:26;94861.88;;;17.86;69.25
19761;BME280;10039;42.632;23.408;2023-05-23T06:56:51;94898.59;;;18.39;68.65
19761;BME280;10039;42.632;23.408;2023-05-23T06:59:17;94891.84;;;18.72;68.40
19761;BME280;10039;42.632;23.408;2023-05-23T07:01:43;94889.34;;;18.83;66.94
19761;BME280;10039;42.632;23.408;2023-05-23T07:04:08;94889.66;;;19.00;66.72
19761;BME280;10039;42.632;23.408;2023-05-23T07:06:34;94890.66;;;19.02;65.85
19761;BME280;10039;42.632;23.408;2023-05-23T07:09:00;94884.25;;;19.14;65.88
19761;BME280;10039;42.632;23.408;2023-05-23T07:11:25;94873.56;;;18.67;66.90
19761;BME280;10039;42.632;23.408;2023-05-23T07:13:51;94881.94;;;18.55;67.36
19761;BME280;10039;42.632;23.408;2023-05-23T07:16:17;94873.28;;;18.65;67.37
19761;BME280;10039;42.632;23.408;2023-05-23T07:18:42;94850.66;;;18.77;66.39
19761;BME280;10039;42.632;23.408;2023-05-23T07:21:08;94876.75;;;19.09;66.80
19761;BME280;10039;42.632;23.408;2023-05-23T07:23:33;94870.13;;;19.39;66.21
19761;BME280;10039;42.632;23.408;2023-05-23T07:25:59;94871.31;;;19.52;65.80
19761;BME280;10039;42.632;23.408;2023-05-23T07:28:25;94871.22;;;19.61;65.10
19761;BME280;10039;42.632;23.408;2023-05-23T07:30:51;94862.88;;;18.87;66.76
19761;BME280;10039;42.632;23.408;2023-05-23T07:33:16;94854.69;;;19.25;66.04
19761;BME280;10039;42.632;23.408;2023-05-23T07:35:43;94848.72;;;19.55;65.07
19761;BME280;10039;42.632;23.408;2023-05-23T07:38:08;94862.44;;;19.66;64.50
19761;BME280;10039;42.632;23.408;2023-05-23T07:40:34;94859.41;;;19.79;65.59
19761;BME280;10039;42.632;23.408;2023-05-23T07:42:59;94842.38;;;19.78;64.97
19761;BME280;10039;42.632;23.408;2023-05-23T07:45:25;94848.53;;;20.13;63.79
19761;BME280;10039;42.632;23.408;2023-05-23T07:47:50;94853.19;;;20.33;62.72
19761;BME280;10039;42.632;23.408;2023-05-23T07:50:16;94849.66;;;20.46;61.97
19761;BME280;10039;42.632;23.408;2023-05-23T07:52:42;94858.34;;;20.76;62.13
19761;BME280;10039;42.632;23.408;2023-05-23T07:55:08;94837.06;;;20.89;61.61
19761;BME280;10039;42.632;23.408;2023-05-23T07:57:33;94847.06;;;21.03;61.26
19761;BME280;10039;42.632;23.408;2023-05-23T07:59:59;94843.47;;;20.91;61.21
19761;BME280;10039;42.632;23.408;2023-05-23T08:02:24;94840.97;;;21.13;61.65
19761;BME280;10039;42.632;23.408;2023-05-23T08:04:49;94842.47;;;21.14;61.23
19761;BME280;10039;42.632;23.408;2023-05-23T08:07:15;94843.22;;;21.51;61.02
19761;BME280;10039;42.632;23.408;2023-05-23T08:09:41;94844.47;;;21.86;59.48
19761;BME280;10039;42.632;23.408;2023-05-23T08:12:07;94844.16;;;22.32;58.92
19761;BME280;10039;42.632;23.408;2023-05-23T08:14:33;94831.47;;;21.65;58.73
19761;BME280;10039;42.632;23.408;2023-05-23T08:16:59;94835.94;;;22.10;57.84
19761;BME280;10039;42.632;23.408;2023-05-23T08:19:24;94843.28;;;22.46;58.42
19761;BME280;10039;42.632;23.408;2023-05-23T08:21:50;94833.38;;;22.54;56.70
19761;BME280;10039;42.632;23.408;2023-05-23T08:24:17;94833.84;;;22.47;57.24
19761;BME280;10039;42.632;23.408;2023-05-23T08:26:43;94833.19;;;22.84;57.08
19761;BME280;10039;42.632;23.408;2023-05-23T08:29:08;94826.31;;;23.16;57.00
19761;BME280;10039;42.632;23.408;2023-05-23T08:31:34;94834.19;;;23.64;55.41
19761;BME280;10039;42.632;23.408;2023-05-23T08:34:00;94824.06;;;23.53;54.84
19761;BME280;10039;42.632;23.408;2023-05-23T08:36:25;94826.53;;;23.62;55.11
19761;BME280;10039;42.632;23.408;2023-05-23T08:38:51;94799.06;;;23.44;55.55
19761;BME280;10039;42.632;23.408;2023-05-23T08:41:21;94827.50;;;23.76;55.02
19761;BME280;10039;42.632;23.408;2023-05-23T08:43:47;94824.00;;;23.97;54.61
19761;BME280;10039;42.632;23.408;2023-05-23T08:46:13;94829.69;;;23.93;54.40
19761;BME280;10039;42.632;23.408;2023-05-23T08:48:41;94804.69;;;23.84;53.74
19761;BME280;10039;42.632;23.408;2023-05-23T08:51:10;94829.44;;;24.02;54.36
19761;BME280;10039;42.632;23.408;2023-05-23T08:53:40;94809.53;;;24.24;53.56
19761;BME280;10039;42.632;23.408;2023-05-23T08:56:07;94820.47;;;24.18;53.74
19761;BME280;10039;42.632;23.408;2023-05-23T08:58:34;94814.53;;;24.09;51.23
19761;BME280;10039;42.632;23.408;2023-05-23T09:01:00;94821.50;;;24.67;51.96
19761;BME280;10039;42.632;23.408;2023-05-23T09:03:26;94811.56;;;25.04;50.94
19761;BME280;10039;42.632;23.408;2023-05-23T09:05:53;94801.06;;;24.79;51.40
19761;BME280;10039;42.632;23.408;2023-05-23T09:08:21;94812.75;;;25.08;51.61
19761;BME280;10039;42.632;23.408;2023-05-23T09:10:48;94800.56;;;24.75;51.26
19761;BME280;10039;42.632;23.408;2023-05-23T09:13:16;94807.59;;;24.65;53.34
19761;BME280;10039;42.632;23.408;2023-05-23T09:16:03;94812.34;;;23.96;53.26
19761;BME280;10039;42.632;23.408;2023-05-23T09:18:35;94788.56;;;24.43;53.24
19761;BME280;10039;42.632;23.408;2023-05-23T09:21:01;94798.31;;;25.13;48.94
19761;BME280;10039;42.632;23.408;2023-05-23T09:23:34;94797.47;;;25.83;48.22
19761;BME280;10039;42.632;23.408;2023-05-23T09:26:04;94781.41;;;25.98;45.98
19761;BME280;10039;42.632;23.408;2023-05-23T09:28:31;94804.19;;;26.48;44.67
19761;BME280;10039;42.632;23.408;2023-05-23T09:31:01;94782.97;;;26.12;40.59
19761;BME280;10039;42.632;23.408;2023-05-23T09:33:45;94785.53;;;26.46;43.36
19761;BME280;10039;42.632;23.408;2023-05-23T09:36:14;94775.81;;;26.64;42.09
19761;BME280;10039;42.632;23.408;2023-05-23T09:38:41;94788.13;;;26.76;41.36
19761;BME280;10039;42.632;23.408;2023-05-23T09:41:07;94781.97;;;26.70;42.13
19761;BME280;10039;42.632;23.408;2023-05-23T09:43:33;94749.97;;;26.78;40.08
19761;BME280;10039;42.632;23.408;2023-05-23T09:46:10;94780.56;;;26.82;39.85
19761;BME280;10039;42.632;23.408;2023-05-23T09:48:36;94777.22;;;26.33;40.61
19761;BME280;10039;42.632;23.408;2023-05-23T09:51:08;94761.28;;;26.56;39.95
19761;BME280;10039;42.632;23.408;2023-05-23T09:53:34;94764.06;;;26.69;41.84
19761;BME280;10039;42.632;23.408;2023-05-23T09:56:01;94779.31;;;26.46;38.72
19761;BME280;10039;42.632;23.408;2023-05-23T09:58:28;94767.78;;;26.53;39.64
19761;BME280;10039;42.632;23.408;2023-05-23T10:00:55;94760.59;;;26.50;41.34
19761;BME280;10039;42.632;23.408;2023-05-23T10:03:33;94773.53;;;26.68;42.88
19761;BME280;10039;42.632;23.408;2023-05-23T10:06:08;94761.84;;;26.49;41.66
19761;BME280;10039;42.632;23.408;2023-05-23T10:08:38;94758.03;;;26.89;40.06
19761;BME280;10039;42.632;23.408;2023-05-23T10:13:47;94752.91;;;26.98;40.18
19761;BME280;10039;42.632;23.408;2023-05-23T10:16:24;94754.88;;;26.66;38.85
19761;BME280;10039;42.632;23.408;2023-05-23T10:18:56;94758.53;;;26.56;39.48
19761;BME280;10039;42.632;23.408;2023-05-23T10:21:28;94747.59;;;26.32;40.03
19761;BME280;10039;42.632;23.408;2023-05-23T10:23:58;94758.19;;;26.78;38.64
19761;BME280;10039;42.632;23.408;2023-05-23T10:26:26;94749.06;;;26.57;38.23
19761;BME280;10039;42.632;23.408;2023-05-23T10:28:51;94743.47;;;26.25;37.79
19761;BME280;10039;42.632;23.408;2023-05-23T10:31:19;94726.47;;;25.72;37.48
19761;BME280;10039;42.632;23.408;2023-05-23T10:33:51;94743.00;;;26.03;39.99
19761;BME280;10039;42.632;23.408;2023-05-23T10:36:31;94740.50;;;26.42;38.73
19761;BME280;10039;42.632;23.408;2023-05-23T10:39:18;94722.38;;;26.39;36.69
19761;BME280;10039;42.632;23.408;2023-05-23T10:41:52;94734.50;;;26.80;36.64
19761;BME280;10039;42.632;23.408;2023-05-23T10:44:24;94728.63;;;26.89;35.94
19761;BME280;10039;42.632;23.408;2023-05-23T10:46:59;94738.75;;;26.63;34.65
19761;BME280;10039;42.632;23.408;2023-05-23T10:49:50;94733.66;;;26.85;37.05
19761;BME280;10039;42.632;23.408;2023-05-23T10:52:16;94732.63;;;26.88;35.80
19761;BME280;10039;42.632;23.408;2023-05-23T10:54:43;94718.06;;;27.12;35.81
19761;BME280;10039;42.632;23.408;2023-05-23T10:57:09;94709.28;;;26.69;34.80
19761;BME280;10039;42.632;23.408;2023-05-23T10:59:37;94688.00;;;26.43;35.28
19761;BME280;10039;42.632;23.408;2023-05-23T11:02:11;94700.91;;;26.93;34.53
19761;BME280;10039;42.632;23.408;2023-05-23T11:04:37;94717.84;;;27.10;35.24
19761;BME280;10039;42.632;23.408;2023-05-23T11:07:03;94699.47;;;26.92;34.08
19761;BME280;10039;42.632;23.408;2023-05-23T11:09:28;94701.09;;;26.82;33.58
19761;BME280;10039;42.632;23.408;2023-05-23T11:12:03;94708.91;;;26.59;33.26
19761;BME280;10039;42.632;23.408;2023-05-23T11:14:32;94702.75;;;26.72;33.26
19761;BME280;10039;42.632;23.408;2023-05-23T11:16:59;94689.03;;;26.59;34.07
19761;BME280;10039;42.632;23.408;2023-05-23T11:19:26;94695.63;;;26.82;35.58
19761;BME280;10039;42.632;23.408;2023-05-23T11:22:00;94703.97;;;26.39;34.65
19761;BME280;10039;42.632;23.408;2023-05-23T11:24:51;94712.84;;;26.45;33.61
19761;BME280;10039;42.632;23.408;2023-05-23T11:27:30;94701.47;;;26.60;34.57
19761;BME280;10039;42.632;23.408;2023-05-23T11:30:01;94699.09;;;26.51;33.61
19761;BME280;10039;42.632;23.408;2023-05-23T11:32:29;94679.13;;;26.69;34.27
19761;BME280;10039;42.632;23.408;2023-05-23T11:34:58;94696.97;;;26.75;35.01
19761;BME280;10039;42.632;23.408;2023-05-23T11:37:24;94674.50;;;26.45;35.46
19761;BME280;10039;42.632;23.408;2023-05-23T11:39:50;94696.56;;;26.84;35.05
19761;BME280;10039;42.632;23.408;2023-05-23T11:42:15;94692.50;;;27.04;34.21
19761;BME280;10039;42.632;23.408;2023-05-23T11:44:41;94689.06;;;26.72;35.24
19761;BME280;10039;42.632;23.408;2023-05-23T11:47:06;94679.09;;;26.56;35.46
19761;BME280;10039;42.632;23.408;2023-05-23T11:49:37;94664.19;;;26.70;35.87
19761;BME280;10039;42.632;23.408;2023-05-23T11:52:03;94677.81;;;26.88;33.97
19761;BME280;10039;42.632;23.408;2023-05-23T11:54:30;94677.63;;;26.55;34.20
19761;BME280;10039;42.632;23.408;2023-05-23T11:56:56;94687.69;;;26.47;35.12
19761;BME280;10039;42.632;23.408;2023-05-23T11:59:23;94667.19;;;26.35;34.43
19761;BME280;10039;42.632;23.408;2023-05-23T12:01:51;94653.06;;;26.31;33.48
19761;BME280;10039;42.632;23.408;2023-05-23T12:04:16;94657.72;;;26.54;35.35
19761;BME280;10039;42.632;23.408;2023-05-23T12:06:45;94648.03;;;26.35;35.22
19761;BME280;10039;42.632;23.408;2023-05-23T12:09:11;94657.16;;;26.74;34.86
19761;BME280;10039;42.632;23.408;2023-05-23T12:11:38;94663.28;;;26.49;34.57
19761;BME280;10039;42.632;23.408;2023-05-23T12:14:05;94661.69;;;26.85;34.72
19761;BME280;10039;42.632;23.408;2023-05-23T12:16:32;94658.91;;;26.72;34.57
19761;BME280;10039;42.632;23.408;2023-05-23T12:18:58;94635.84;;;26.80;34.99
19761;BME280;10039;42.632;23.408;2023-05-23T12:21:25;94650.91;;;27.05;33.63
19761;BME280;10039;42.632;23.408;2023-05-23T12:23:50;94653.06;;;27.38;33.69
19761;BME280;10039;42.632;23.408;2023-05-23T12:26:16;94645.75;;;27.40;33.64
19761;BME280;10039;42.632;23.408;2023-05-23T12:28:43;94654.41;;;27.32;33.83
19761;BME280;10039;42.632;23.408;2023-05-23T12:33:41;94631.38;;;27.60;33.10
19761;BME280;10039;42.632;23.408;2023-05-23T12:36:11;94635.41;;;27.85;33.64
19761;BME280;10039;42.632;23.408;2023-05-23T12:38:36;94635.66;;;28.08;31.82
19761;BME280;10039;42.632;23.408;2023-05-23T12:41:14;94631.13;;;28.10;32.56
19761;BME280;10039;42.632;23.408;2023-05-23T12:43:40;94633.59;;;28.34;32.64
19761;BME280;10039;42.632;23.408;2023-05-23T12:46:06;94626.16;;;28.42;32.28
19761;BME280;10039;42.632;23.408;2023-05-23T12:48:32;94622.97;;;28.51;31.64
19761;BME280;10039;42.632;23.408;2023-05-23T12:50:58;94624.94;;;28.30;31.36
19761;BME280;10039;42.632;23.408;2023-05-23T12:53:25;94617.72;;;28.40;30.69
19761;BME280;10039;42.632;23.408;2023-05-23T12:55:51;94622.41;;;28.32;30.53
19761;BME280;10039;42.632;23.408;2023-05-23T12:58:16;94616.91;;;28.32;30.16
19761;BME280;10039;42.632;23.408;2023-05-23T13:00:42;94614.59;;;28.23;30.21